Terminal Aerodrome Forecast
Issued by NWS Des Moines, IA

Home | Current Version | Previous Version | Text Only | Print | Product List | Glossary On
Versions: 1 2 3 4 5 6 7 8 9 10 11 12 13 14 15 16 17 18 19 20 21 22 23 24 25 26 27 28 29 30 31 32 33 34 35 36
000
FTUS43 KDMX 181219 AAA
TAFDSM
TAF AMD
KDSM 181219Z 1812/1912 12004KT 3SM BR SCT003 BKN035
      TEMPO 1812/1814 1/4SM FG OVC003
     FM181600 13009KT P6SM SCT040
     FM191000 12006KT 5SM BR SCT080=

USA.gov is the U.S. government's official web portal to all federal, state and local government web resources and services.